Time,TemperatureF,DewpointF,PressureIn,WindDirection,WindDirectionDegrees,WindSpeedMPH,WindSpeedGustMPH,Humidity,HourlyPrecipIn,Conditions,Clouds,dailyrainin,SoftwareType,DateUTC
2013-05-17 00:11:00,53.1,47.0,29.99,East,87,1.0,-999.0,79,-99.99,,,0.00,weatherlink.com 1.10,2013-05-17 07:11:00,
2013-05-17 00:26:00,52.9,46.0,30.00,East,87,0.0,-999.0,78,-99.99,,,0.00,weatherlink.com 1.10,2013-05-17 07:26:00,
2013-05-17 00:41:00,53.1,46.0,29.99,East,87,0.0,-999.0,77,-99.99,,,0.00,weatherlink.com 1.10,2013-05-17 07:41:00,
2013-05-17 00:56:00,53.1,46.0,30.00,East,87,0.0,-999.0,76,-99.99,,,0.00,weatherlink.com 1.10,2013-05-17 07:56:00,
2013-05-17 01:11:00,53.2,45.0,30.00,SW,234,0.0,-999.0,74,-99.99,,,0.00,weatherlink.com 1.10,2013-05-17 08:11:00,
2013-05-17 01:26:00,53.6,47.0,30.00,SW,234,0.0,-999.0,79,-99.99,,,0.00,weatherlink.com 1.10,2013-05-17 08:26:00,
2013-05-17 01:41:00,53.6,48.0,29.99,SE,134,0.0,-999.0,82,-99.99,,,0.00,weatherlink.com 1.10,2013-05-17 08:41:00,
2013-05-17 01:56:00,53.2,49.0,29.98,SE,134,0.0,-999.0,84,-99.99,,,0.00,weatherlink.com 1.10,2013-05-17 08:56:00,
2013-05-17 02:11:00,52.8,48.0,29.98,SE,134,0.0,-999.0,85,-99.99,,,0.00,weatherlink.com 1.10,2013-05-17 09:11:00,
2013-05-17 02:26:00,52.3,48.0,29.98,SE,134,0.0,-999.0,85,-99.99,,,0.00,weatherlink.com 1.10,2013-05-17 09:26:00,
2013-05-17 02:41:00,51.9,48.0,29.98,SE,134,0.0,-999.0,86,-99.99,,,0.00,weatherlink.com 1.10,2013-05-17 09:41:00,
2013-05-17 02:56:00,51.7,48.0,29.98,SE,134,0.0,-999.0,87,-99.99,,,0.00,weatherlink.com 1.10,2013-05-17 09:56:00,
2013-05-17 03:11:00,51.6,48.0,29.98,SE,134,0.0,-999.0,87,-99.99,,,0.00,weatherlink.com 1.10,2013-05-17 10:11:00,
2013-05-17 03:26:00,51.3,48.0,29.98,SE,134,0.0,-999.0,87,-99.99,,,0.00,weatherlink.com 1.10,2013-05-17 10:26:00,
2013-05-17 03:41:00,51.1,47.0,29.98,ESE,105,0.0,-999.0,87,-99.99,,,0.00,weatherlink.com 1.10,2013-05-17 10:41:00,
2013-05-17 03:56:00,51.0,47.0,29.98,ESE,105,0.0,-999.0,87,-99.99,,,0.00,weatherlink.com 1.10,2013-05-17 10:56:00,
2013-05-17 04:11:00,50.7,47.0,29.98,ESE,105,0.0,-999.0,88,-99.99,,,0.00,weatherlink.com 1.10,2013-05-17 11:11:00,
2013-05-17 04:26:00,50.2,47.0,29.98,ESE,105,0.0,-999.0,88,-99.99,,,0.00,weatherlink.com 1.10,2013-05-17 11:26:00,
2013-05-17 04:41:00,49.9,47.0,29.98,ESE,105,0.0,-999.0,89,-99.99,,,0.00,weatherlink.com 1.10,2013-05-17 11:41:00,
2013-05-17 04:56:00,50.4,48.0,29.98,ESE,105,0.0,-999.0,90,-99.99,,,0.00,weatherlink.com 1.10,2013-05-17 11:56:00,
2013-05-17 05:11:00,50.5,48.0,29.97,ESE,105,0.0,-999.0,91,-99.99,,,0.00,weatherlink.com 1.10,2013-05-17 12:11:00,
2013-05-17 05:26:00,50.7,48.0,29.98,ESE,105,0.0,-999.0,91,-99.99,,,0.00,weatherlink.com 1.10,2013-05-17 12:26:00,
2013-05-17 05:41:00,50.7,48.0,29.98,ESE,105,0.0,-999.0,91,-99.99,,,0.00,weatherlink.com 1.10,2013-05-17 12:41:00,
2013-05-17 05:56:00,50.7,48.0,29.98,ESE,105,0.0,-999.0,91,-99.99,,,0.00,weatherlink.com 1.10,2013-05-17 12:56:00,
2013-05-17 06:11:00,50.5,48.0,29.98,ESE,105,0.0,-999.0,91,-99.99,,,0.00,weatherlink.com 1.10,2013-05-17 13:11:00,
2013-05-17 06:26:00,50.5,48.0,29.98,ESE,105,0.0,-999.0,91,-99.99,,,0.00,weatherlink.com 1.10,2013-05-17 13:26:00,
2013-05-17 06:41:00,51.0,49.0,29.98,ESE,105,0.0,-999.0,92,-99.99,,,0.00,weatherlink.com 1.10,2013-05-17 13:41:00,
2013-05-17 06:56:00,51.0,49.0,29.98,ESE,105,0.0,-999.0,92,-99.99,,,0.00,weatherlink.com 1.10,2013-05-17 13:56:00,
2013-05-17 07:11:00,51.3,49.0,29.99,ESE,105,0.0,-999.0,92,-99.99,,,0.00,weatherlink.com 1.10,2013-05-17 14:11:00,
2013-05-17 07:26:00,51.7,49.0,29.99,East,94,1.0,-999.0,91,-99.99,,,0.00,weatherlink.com 1.10,2013-05-17 14:26:00,
2013-05-17 07:41:00,52.5,50.0,30.00,ESE,105,1.0,-999.0,91,-99.99,,,0.00,weatherlink.com 1.10,2013-05-17 14:41:00,
2013-05-17 07:56:00,54.1,50.0,30.01,ESE,103,0.0,-999.0,87,-99.99,,,0.00,weatherlink.com 1.10,2013-05-17 14:56:00,
2013-05-17 08:11:00,55.1,50.0,30.01,ESE,103,0.0,-999.0,83,-99.99,,,0.00,weatherlink.com 1.10,2013-05-17 15:11:00,
2013-05-17 08:26:00,55.9,50.0,30.01,SW,232,0.0,-999.0,79,-99.99,,,0.00,weatherlink.com 1.10,2013-05-17 15:26:00,
2013-05-17 08:41:00,56.2,49.0,30.01,WSW,258,0.0,-999.0,76,-99.99,,,0.00,weatherlink.com 1.10,2013-05-17 15:41:00,
2013-05-17 08:56:00,58.1,49.0,30.01,SW,224,1.0,-999.0,73,-99.99,,,0.00,weatherlink.com 1.10,2013-05-17 15:56:00,
2013-05-17 09:12:00,59.3,49.0,30.01,SE,145,1.0,-999.0,68,-99.99,,,0.00,weatherlink.com 1.10,2013-05-17 16:12:00,
2013-05-17 09:27:00,60.4,48.0,30.01,SSE,155,0.0,-999.0,64,-99.99,,,0.00,weatherlink.com 1.10,2013-05-17 16:27:00,
2013-05-17 09:42:00,60.4,48.0,30.01,WSW,252,0.0,-999.0,65,-99.99,,,0.00,weatherlink.com 1.10,2013-05-17 16:42:00,
2013-05-17 09:57:00,61.2,49.0,30.01,ESE,116,0.0,-999.0,64,-99.99,,,0.00,weatherlink.com 1.10,2013-05-17 16:57:00,
2013-05-17 10:12:00,61.8,49.0,30.01,WSW,246,0.0,-999.0,63,-99.99,,,0.00,weatherlink.com 1.10,2013-05-17 17:12:00,
2013-05-17 10:27:00,61.8,49.0,30.02,SSW,196,1.0,-999.0,63,-99.99,,,0.00,weatherlink.com 1.10,2013-05-17 17:27:00,
2013-05-17 10:42:00,62.9,50.0,30.02,WSW,256,2.0,-999.0,62,-99.99,,,0.00,weatherlink.com 1.10,2013-05-17 17:42:00,
2013-05-17 10:57:00,62.3,49.0,30.02,SSE,161,0.0,-999.0,63,-99.99,,,0.00,weatherlink.com 1.10,2013-05-17 17:57:00,
2013-05-17 11:12:00,62.0,49.0,30.03,West,273,3.0,-999.0,63,-99.99,,,0.00,weatherlink.com 1.10,2013-05-17 18:12:00,
2013-05-17 11:27:00,62.1,49.0,30.03,WSW,238,0.0,-999.0,62,-99.99,,,0.00,weatherlink.com 1.10,2013-05-17 18:27:00,
2013-05-17 11:42:00,62.6,49.0,30.04,SSW,203,2.0,-999.0,62,-99.99,,,0.00,weatherlink.com 1.10,2013-05-17 18:42:00,
2013-05-17 11:57:00,62.4,50.0,30.04,SW,217,4.0,-999.0,64,-99.99,,,0.00,weatherlink.com 1.10,2013-05-17 18:57:00,
2013-05-17 12:12:00,62.6,50.0,30.04,SE,130,0.0,-999.0,64,-99.99,,,0.00,weatherlink.com 1.10,2013-05-17 19:12:00,
2013-05-17 12:27:00,62.7,51.0,30.04,South,173,2.0,-999.0,65,-99.99,,,0.00,weatherlink.com 1.10,2013-05-17 19:27:00,
2013-05-17 12:42:00,63.1,51.0,30.04,East,99,0.0,-999.0,64,-99.99,,,0.00,weatherlink.com 1.10,2013-05-17 19:42:00,
2013-05-17 12:57:00,64.7,51.0,30.04,SW,232,0.0,-999.0,62,-99.99,,,0.00,weatherlink.com 1.10,2013-05-17 19:57:00,
2013-05-17 13:12:00,65.0,51.0,30.04,East,84,1.0,-999.0,60,-99.99,,,0.00,weatherlink.com 1.10,2013-05-17 20:12:00,
2013-05-17 13:27:00,65.2,51.0,30.04,SSW,208,4.0,-999.0,60,-99.99,,,0.00,weatherlink.com 1.10,2013-05-17 20:27:00,
2013-05-17 13:42:00,66.1,50.0,30.04,WSW,254,1.0,-999.0,56,-99.99,,,0.00,weatherlink.com 1.10,2013-05-17 20:42:00,
2013-05-17 13:57:00,66.4,51.0,30.04,SSW,205,1.0,-999.0,57,-99.99,,,0.00,weatherlink.com 1.10,2013-05-17 20:57:00,
2013-05-17 14:12:00,67.1,50.0,30.04,SW,218,1.0,-999.0,54,-99.99,,,0.00,weatherlink.com 1.10,2013-05-17 21:12:00,
2013-05-17 14:27:00,66.8,50.0,30.04,WSW,240,0.0,-999.0,56,-99.99,,,0.00,weatherlink.com 1.10,2013-05-17 21:27:00,
2013-05-17 14:42:00,66.6,49.0,30.04,NW,325,0.0,-999.0,54,-99.99,,,0.00,weatherlink.com 1.10,2013-05-17 21:42:00,
2013-05-17 14:57:00,66.4,49.0,30.04,SE,137,2.0,-999.0,54,-99.99,,,0.00,weatherlink.com 1.10,2013-05-17 21:57:00,
2013-05-17 15:12:00,66.9,48.0,30.04,SW,231,4.0,-999.0,50,-99.99,,,0.00,weatherlink.com 1.10,2013-05-17 22:12:00,
2013-05-17 15:27:00,67.9,47.0,30.04,SW,227,1.0,-999.0,47,-99.99,,,0.00,weatherlink.com 1.10,2013-05-17 22:27:00,
2013-05-17 15:43:00,67.3,47.0,30.04,WNW,286,0.0,-999.0,48,-99.99,,,0.00,weatherlink.com 1.10,2013-05-17 22:43:00,
2013-05-17 15:58:00,67.9,46.0,30.04,WSW,246,2.0,-999.0,45,-99.99,,,0.00,weatherlink.com 1.10,2013-05-17 22:58:00,
2013-05-17 16:12:00,67.4,47.0,30.04,WNW,284,5.0,-999.0,48,-99.99,,,0.00,weatherlink.com 1.10,2013-05-17 23:12:00,
2013-05-17 16:27:00,65.8,47.0,30.04,WSW,258,3.0,-999.0,51,-99.99,,,0.00,weatherlink.com 1.10,2013-05-17 23:27:00,
2013-05-17 16:43:00,65.0,47.0,30.04,West,264,3.0,-999.0,52,-99.99,,,0.00,weatherlink.com 1.10,2013-05-17 23:43:00,
2013-05-17 16:58:00,65.0,48.0,30.04,SSW,199,0.0,-999.0,55,-99.99,,,0.00,weatherlink.com 1.10,2013-05-17 23:58:00,
2013-05-17 17:12:00,65.3,49.0,30.04,WSW,248,0.0,-999.0,55,-99.99,,,0.00,weatherlink.com 1.10,2013-05-18 00:12:00,
2013-05-17 17:27:00,64.8,49.0,30.03,SW,219,1.0,-999.0,56,-99.99,,,0.00,weatherlink.com 1.10,2013-05-18 00:27:00,
2013-05-17 17:42:00,65.2,48.0,30.04,SW,227,1.0,-999.0,55,-99.99,,,0.00,weatherlink.com 1.10,2013-05-18 00:42:00,
2013-05-17 17:57:00,64.0,48.0,30.04,WSW,243,0.0,-999.0,56,-99.99,,,0.00,weatherlink.com 1.10,2013-05-18 00:57:00,
2013-05-17 18:12:00,63.2,48.0,30.04,SSE,152,1.0,-999.0,58,-99.99,,,0.00,weatherlink.com 1.10,2013-05-18 01:12:00,
2013-05-17 18:27:00,62.9,48.0,30.04,South,188,3.0,-999.0,58,-99.99,,,0.00,weatherlink.com 1.10,2013-05-18 01:27:00,
2013-05-17 18:42:00,62.1,47.0,30.04,SW,233,0.0,-999.0,59,-99.99,,,0.00,weatherlink.com 1.10,2013-05-18 01:42:00,
2013-05-17 18:57:00,61.6,47.0,30.04,SW,220,0.0,-999.0,59,-99.99,,,0.00,weatherlink.com 1.10,2013-05-18 01:57:00,
2013-05-17 19:12:00,61.3,47.0,30.04,SSE,156,0.0,-999.0,60,-99.99,,,0.00,weatherlink.com 1.10,2013-05-18 02:12:00,
2013-05-17 19:27:00,60.5,47.0,30.05,West,267,0.0,-999.0,62,-99.99,,,0.00,weatherlink.com 1.10,2013-05-18 02:27:00,
2013-05-17 19:42:00,59.0,47.0,30.05,SW,231,2.0,-999.0,65,-99.99,,,0.00,weatherlink.com 1.10,2013-05-18 02:42:00,
2013-05-17 19:57:00,57.6,47.0,30.06,SW,233,3.0,-999.0,69,-99.99,,,0.00,weatherlink.com 1.10,2013-05-18 02:57:00,
2013-05-17 20:12:00,56.9,48.0,30.06,SW,227,1.0,-999.0,71,-99.99,,,0.00,weatherlink.com 1.10,2013-05-18 03:12:00,
2013-05-17 20:27:00,56.2,47.0,30.06,ESE,119,1.0,-999.0,72,-99.99,,,0.00,weatherlink.com 1.10,2013-05-18 03:27:00,
2013-05-17 20:42:00,55.9,47.0,30.06,SSE,147,0.0,-999.0,72,-99.99,,,0.00,weatherlink.com 1.10,2013-05-18 03:42:00,
2013-05-17 20:57:00,55.4,47.0,30.06,SSW,209,0.0,-999.0,74,-99.99,,,0.00,weatherlink.com 1.10,2013-05-18 03:57:00,
2013-05-17 21:12:00,54.8,47.0,30.07,SSW,194,0.0,-999.0,75,-99.99,,,0.00,weatherlink.com 1.10,2013-05-18 04:12:00,
2013-05-17 21:27:00,54.4,47.0,30.07,SSW,194,0.0,-999.0,77,-99.99,,,0.00,weatherlink.com 1.10,2013-05-18 04:27:00,
2013-05-17 21:42:00,53.9,47.0,30.07,SSW,194,0.0,-999.0,78,-99.99,,,0.00,weatherlink.com 1.10,2013-05-18 04:42:00,
2013-05-17 21:57:00,53.8,47.0,30.07,SSW,192,0.0,-999.0,78,-99.99,,,0.00,weatherlink.com 1.10,2013-05-18 04:57:00,
2013-05-17 22:12:00,53.6,47.0,30.07,SSE,155,0.0,-999.0,79,-99.99,,,0.00,weatherlink.com 1.10,2013-05-18 05:12:00,
2013-05-17 22:27:00,53.3,47.0,30.07,SSE,155,0.0,-999.0,80,-99.99,,,0.00,weatherlink.com 1.10,2013-05-18 05:27:00,
2013-05-17 22:42:00,53.2,48.0,30.07,SE,142,0.0,-999.0,82,-99.99,,,0.00,weatherlink.com 1.10,2013-05-18 05:42:00,
2013-05-17 22:57:00,53.1,48.0,30.08,SSE,153,0.0,-999.0,82,-99.99,,,0.00,weatherlink.com 1.10,2013-05-18 05:57:00,
2013-05-17 23:12:00,53.1,48.0,30.08,SE,134,2.0,-999.0,83,-99.99,,,0.00,weatherlink.com 1.10,2013-05-18 06:12:00,
2013-05-17 23:27:00,52.9,48.0,30.08,SSE,157,0.0,-999.0,84,-99.99,,,0.00,weatherlink.com 1.10,2013-05-18 06:27:00,
2013-05-17 23:42:00,52.8,48.0,30.09,South,173,0.0,-999.0,84,-99.99,,,0.00,weatherlink.com 1.10,2013-05-18 06:42:00,
2013-05-17 23:57:00,52.6,48.0,30.08,South,174,0.0,-999.0,85,-99.99,,,0.00,weatherlink.com 1.10,2013-05-18 06:57:00,